Terminal Aerodrome Forecast
Issued by NWS Cleveland, OH

Home | Current Version | Previous Version | Text Only | Print | Product List | Glossary On
Versions: 1 2 3 4 5 6 7 8 9 10 11 12 13 14 15 16 17 18 19 20 21 22 23 24 25 26 27
000
FTUS41 KCLE 250900 AAA
TAFERI
TAF AMD
KERI 250953Z 2510/2606 27006KT P6SM OVC020
     FM251200 01008KT P6SM BKN020 OVC040
     FM251800 04008KT P6SM SCT040 BKN100
     FM260200 06008KT P6SM SCT015 OVC100=

USA.gov is the U.S. government's official web portal to all federal, state and local government web resources and services.